sensor_id;sensor_type;location;lat;lon;timestamp;P1;durP1;ratioP1;P2;durP2;ratioP2
13404;SDS011;6773;51.192;7.024;2023-12-20T00:01:38;15.93;;;6.80;;
13404;SDS011;6773;51.192;7.024;2023-12-20T00:04:05;9.77;;;4.27;;
13404;SDS011;6773;51.192;7.024;2023-12-20T00:06:31;9.80;;;5.00;;
13404;SDS011;6773;51.192;7.024;2023-12-20T00:08:57;15.30;;;5.73;;
13404;SDS011;6773;51.192;7.024;2023-12-20T00:11:23;14.17;;;5.63;;
13404;SDS011;6773;51.192;7.024;2023-12-20T00:13:49;16.70;;;6.23;;
13404;SDS011;6773;51.192;7.024;2023-12-20T00:16:15;12.20;;;5.70;;
13404;SDS011;6773;51.192;7.024;2023-12-20T00:18:41;10.97;;;5.23;;
13404;SDS011;6773;51.192;7.024;2023-12-20T00:21:07;10.30;;;5.07;;
13404;SDS011;6773;51.192;7.024;2023-12-20T00:23:33;10.37;;;5.17;;
13404;SDS011;6773;51.192;7.024;2023-12-20T00:25:59;15.03;;;5.40;;
13404;SDS011;6773;51.192;7.024;2023-12-20T00:28:25;16.37;;;6.00;;
13404;SDS011;6773;51.192;7.024;2023-12-20T00:30:51;13.37;;;5.67;;
13404;SDS011;6773;51.192;7.024;2023-12-20T00:33:17;19.80;;;6.50;;
13404;SDS011;6773;51.192;7.024;2023-12-20T00:35:42;15.10;;;5.67;;
13404;SDS011;6773;51.192;7.024;2023-12-20T00:38:08;20.10;;;6.10;;
13404;SDS011;6773;51.192;7.024;2023-12-20T00:40:36;14.40;;;5.60;;
13404;SDS011;6773;51.192;7.024;2023-12-20T00:43:02;12.83;;;7.30;;
13404;SDS011;6773;51.192;7.024;2023-12-20T00:45:28;19.87;;;7.13;;
13404;SDS011;6773;51.192;7.024;2023-12-20T00:47:54;20.20;;;7.13;;
13404;SDS011;6773;51.192;7.024;2023-12-20T00:50:20;16.03;;;6.03;;
13404;SDS011;6773;51.192;7.024;2023-12-20T00:52:46;21.07;;;6.73;;
13404;SDS011;6773;51.192;7.024;2023-12-20T00:55:12;15.43;;;7.07;;
13404;SDS011;6773;51.192;7.024;2023-12-20T00:57:39;15.77;;;6.67;;
13404;SDS011;6773;51.192;7.024;2023-12-20T01:00:05;16.70;;;6.23;;
13404;SDS011;6773;51.192;7.024;2023-12-20T01:02:31;19.70;;;8.27;;
13404;SDS011;6773;51.192;7.024;2023-12-20T01:04:57;20.73;;;6.63;;
13404;SDS011;6773;51.192;7.024;2023-12-20T01:07:23;21.30;;;8.97;;
13404;SDS011;6773;51.192;7.024;2023-12-20T01:09:49;21.43;;;7.57;;
13404;SDS011;6773;51.192;7.024;2023-12-20T01:12:15;21.17;;;7.20;;
13404;SDS011;6773;51.192;7.024;2023-12-20T01:14:41;22.67;;;7.87;;
13404;SDS011;6773;51.192;7.024;2023-12-20T01:17:07;22.33;;;8.00;;
13404;SDS011;6773;51.192;7.024;2023-12-20T01:19:32;22.50;;;8.10;;
13404;SDS011;6773;51.192;7.024;2023-12-20T01:21:58;20.97;;;7.60;;
13404;SDS011;6773;51.192;7.024;2023-12-20T01:24:24;17.93;;;8.27;;
13404;SDS011;6773;51.192;7.024;2023-12-20T01:26:50;20.77;;;8.47;;
13404;SDS011;6773;51.192;7.024;2023-12-20T01:29:16;23.57;;;10.13;;
13404;SDS011;6773;51.192;7.024;2023-12-20T01:31:42;31.13;;;9.77;;
13404;SDS011;6773;51.192;7.024;2023-12-20T01:34:08;25.00;;;10.57;;
13404;SDS011;6773;51.192;7.024;2023-12-20T01:36:34;24.30;;;10.10;;
13404;SDS011;6773;51.192;7.024;2023-12-20T01:39:00;25.27;;;10.80;;
13404;SDS011;6773;51.192;7.024;2023-12-20T01:41:26;25.00;;;12.63;;
13404;SDS011;6773;51.192;7.024;2023-12-20T01:43:51;30.07;;;14.60;;
13404;SDS011;6773;51.192;7.024;2023-12-20T01:46:19;35.83;;;14.43;;
13404;SDS011;6773;51.192;7.024;2023-12-20T01:48:46;37.73;;;17.60;;
13404;SDS011;6773;51.192;7.024;2023-12-20T01:51:13;50.20;;;19.23;;
13404;SDS011;6773;51.192;7.024;2023-12-20T01:53:39;43.40;;;18.77;;
13404;SDS011;6773;51.192;7.024;2023-12-20T01:56:06;44.50;;;17.43;;
13404;SDS011;6773;51.192;7.024;2023-12-20T01:58:32;49.03;;;18.63;;
13404;SDS011;6773;51.192;7.024;2023-12-20T02:00:58;40.77;;;18.43;;
13404;SDS011;6773;51.192;7.024;2023-12-20T02:03:24;45.53;;;20.00;;
13404;SDS011;6773;51.192;7.024;2023-12-20T02:05:50;25.10;;;12.67;;
13404;SDS011;6773;51.192;7.024;2023-12-20T02:08:16;32.20;;;16.73;;
13404;SDS011;6773;51.192;7.024;2023-12-20T02:10:42;41.33;;;16.83;;
13404;SDS011;6773;51.192;7.024;2023-12-20T02:13:08;45.03;;;16.83;;
13404;SDS011;6773;51.192;7.024;2023-12-20T02:15:34;38.43;;;16.53;;
13404;SDS011;6773;51.192;7.024;2023-12-20T02:18:05;36.93;;;16.13;;
13404;SDS011;6773;51.192;7.024;2023-12-20T02:20:31;33.30;;;13.57;;
13404;SDS011;6773;51.192;7.024;2023-12-20T02:22:57;28.83;;;14.27;;
13404;SDS011;6773;51.192;7.024;2023-12-20T02:25:23;31.70;;;14.63;;
13404;SDS011;6773;51.192;7.024;2023-12-20T02:27:49;25.20;;;11.80;;
13404;SDS011;6773;51.192;7.024;2023-12-20T02:30:15;35.77;;;14.93;;
13404;SDS011;6773;51.192;7.024;2023-12-20T02:32:40;30.80;;;14.87;;
13404;SDS011;6773;51.192;7.024;2023-12-20T02:35:06;28.90;;;13.17;;
13404;SDS011;6773;51.192;7.024;2023-12-20T02:37:33;32.20;;;14.07;;
13404;SDS011;6773;51.192;7.024;2023-12-20T02:39:59;32.20;;;13.17;;
13404;SDS011;6773;51.192;7.024;2023-12-20T02:42:25;28.57;;;14.10;;
13404;SDS011;6773;51.192;7.024;2023-12-20T02:44:51;29.63;;;13.73;;
13404;SDS011;6773;51.192;7.024;2023-12-20T02:47:17;32.30;;;13.67;;
13404;SDS011;6773;51.192;7.024;2023-12-20T02:49:43;32.00;;;13.13;;
13404;SDS011;6773;51.192;7.024;2023-12-20T02:52:09;24.80;;;12.13;;
13404;SDS011;6773;51.192;7.024;2023-12-20T02:54:35;29.23;;;13.47;;
13404;SDS011;6773;51.192;7.024;2023-12-20T02:57:01;26.93;;;13.43;;
13404;SDS011;6773;51.192;7.024;2023-12-20T02:59:27;41.23;;;13.70;;
13404;SDS011;6773;51.192;7.024;2023-12-20T03:01:53;28.30;;;14.43;;
13404;SDS011;6773;51.192;7.024;2023-12-20T03:04:19;30.73;;;11.80;;
13404;SDS011;6773;51.192;7.024;2023-12-20T03:06:45;19.23;;;9.23;;
13404;SDS011;6773;51.192;7.024;2023-12-20T03:09:11;34.00;;;11.73;;
13404;SDS011;6773;51.192;7.024;2023-12-20T03:11:37;31.13;;;12.03;;
13404;SDS011;6773;51.192;7.024;2023-12-20T03:14:03;27.63;;;11.20;;
13404;SDS011;6773;51.192;7.024;2023-12-20T03:16:29;16.20;;;9.03;;
13404;SDS011;6773;51.192;7.024;2023-12-20T03:18:56;30.80;;;10.37;;
13404;SDS011;6773;51.192;7.024;2023-12-20T03:21:21;25.63;;;9.63;;
13404;SDS011;6773;51.192;7.024;2023-12-20T03:23:47;28.63;;;10.10;;
13404;SDS011;6773;51.192;7.024;2023-12-20T03:26:13;15.40;;;8.10;;
13404;SDS011;6773;51.192;7.024;2023-12-20T03:28:40;16.87;;;7.10;;
13404;SDS011;6773;51.192;7.024;2023-12-20T03:31:06;20.90;;;8.63;;
13404;SDS011;6773;51.192;7.024;2023-12-20T03:33:32;17.80;;;8.00;;
13404;SDS011;6773;51.192;7.024;2023-12-20T03:35:58;15.27;;;7.77;;
13404;SDS011;6773;51.192;7.024;2023-12-20T03:38:24;23.80;;;8.23;;
13404;SDS011;6773;51.192;7.024;2023-12-20T03:40:50;18.23;;;8.13;;
13404;SDS011;6773;51.192;7.024;2023-12-20T03:43:16;16.07;;;7.93;;
13404;SDS011;6773;51.192;7.024;2023-12-20T03:45:42;20.33;;;8.23;;
13404;SDS011;6773;51.192;7.024;2023-12-20T03:48:08;13.33;;;7.90;;
13404;SDS011;6773;51.192;7.024;2023-12-20T03:50:34;20.47;;;9.03;;
13404;SDS011;6773;51.192;7.024;2023-12-20T03:53:01;24.43;;;9.43;;
13404;SDS011;6773;51.192;7.024;2023-12-20T03:55:26;14.00;;;7.47;;
13404;SDS011;6773;51.192;7.024;2023-12-20T03:57:52;24.00;;;8.17;;
13404;SDS011;6773;51.192;7.024;2023-12-20T04:00:18;18.83;;;7.83;;
13404;SDS011;6773;51.192;7.024;2023-12-20T04:02:44;17.67;;;7.50;;
13404;SDS011;6773;51.192;7.024;2023-12-20T04:05:10;28.03;;;7.50;;
13404;SDS011;6773;51.192;7.024;2023-12-20T04:07:36;18.20;;;8.10;;
13404;SDS011;6773;51.192;7.024;2023-12-20T04:10:02;18.03;;;7.20;;
13404;SDS011;6773;51.192;7.024;2023-12-20T04:12:29;19.30;;;7.33;;
13404;SDS011;6773;51.192;7.024;2023-12-20T04:14:55;21.77;;;7.67;;
13404;SDS011;6773;51.192;7.024;2023-12-20T04:17:21;11.37;;;6.40;;
13404;SDS011;6773;51.192;7.024;2023-12-20T04:19:50;12.60;;;6.13;;
13404;SDS011;6773;51.192;7.024;2023-12-20T04:22:16;22.60;;;7.90;;
13404;SDS011;6773;51.192;7.024;2023-12-20T04:24:42;12.03;;;5.20;;
13404;SDS011;6773;51.192;7.024;2023-12-20T04:27:08;15.43;;;6.13;;
13404;SDS011;6773;51.192;7.024;2023-12-20T04:29:35;18.50;;;5.77;;
13404;SDS011;6773;51.192;7.024;2023-12-20T04:32:01;15.27;;;4.90;;
13404;SDS011;6773;51.192;7.024;2023-12-20T04:34:27;18.53;;;5.93;;
13404;SDS011;6773;51.192;7.024;2023-12-20T04:36:53;14.60;;;6.70;;
13404;SDS011;6773;51.192;7.024;2023-12-20T04:39:19;17.37;;;5.57;;
13404;SDS011;6773;51.192;7.024;2023-12-20T04:41:45;19.70;;;6.93;;
13404;SDS011;6773;51.192;7.024;2023-12-20T04:44:12;20.67;;;5.87;;
13404;SDS011;6773;51.192;7.024;2023-12-20T04:46:38;13.17;;;5.77;;
13404;SDS011;6773;51.192;7.024;2023-12-20T04:49:05;13.77;;;6.40;;
13404;SDS011;6773;51.192;7.024;2023-12-20T04:51:33;14.73;;;6.17;;
13404;SDS011;6773;51.192;7.024;2023-12-20T04:53:59;15.70;;;5.60;;
13404;SDS011;6773;51.192;7.024;2023-12-20T04:56:25;17.00;;;5.13;;
13404;SDS011;6773;51.192;7.024;2023-12-20T04:58:51;16.23;;;6.03;;
13404;SDS011;6773;51.192;7.024;2023-12-20T05:01:17;21.20;;;6.87;;
13404;SDS011;6773;51.192;7.024;2023-12-20T05:03:43;15.67;;;6.37;;
13404;SDS011;6773;51.192;7.024;2023-12-20T05:06:09;15.00;;;6.00;;
13404;SDS011;6773;51.192;7.024;2023-12-20T05:08:35;21.77;;;7.40;;
13404;SDS011;6773;51.192;7.024;2023-12-20T05:11:01;14.27;;;6.00;;
13404;SDS011;6773;51.192;7.024;2023-12-20T05:13:27;19.30;;;7.17;;
13404;SDS011;6773;51.192;7.024;2023-12-20T05:15:53;17.87;;;6.23;;
13404;SDS011;6773;51.192;7.024;2023-12-20T05:18:20;15.10;;;6.33;;
13404;SDS011;6773;51.192;7.024;2023-12-20T05:20:46;15.40;;;7.67;;
13404;SDS011;6773;51.192;7.024;2023-12-20T05:23:12;22.40;;;6.77;;
13404;SDS011;6773;51.192;7.024;2023-12-20T05:25:38;20.27;;;7.20;;
13404;SDS011;6773;51.192;7.024;2023-12-20T05:28:04;20.17;;;7.87;;
13404;SDS011;6773;51.192;7.024;2023-12-20T05:30:30;21.33;;;7.70;;
13404;SDS011;6773;51.192;7.024;2023-12-20T05:32:55;17.87;;;6.90;;
13404;SDS011;6773;51.192;7.024;2023-12-20T05:35:21;15.33;;;5.20;;
13404;SDS011;6773;51.192;7.024;2023-12-20T05:37:48;19.60;;;6.77;;
13404;SDS011;6773;51.192;7.024;2023-12-20T05:40:14;22.30;;;7.90;;
13404;SDS011;6773;51.192;7.024;2023-12-20T05:42:40;14.97;;;5.63;;
13404;SDS011;6773;51.192;7.024;2023-12-20T05:45:06;17.13;;;6.47;;
13404;SDS011;6773;51.192;7.024;2023-12-20T05:47:32;13.63;;;5.93;;
13404;SDS011;6773;51.192;7.024;2023-12-20T05:49:57;11.30;;;6.13;;
13404;SDS011;6773;51.192;7.024;2023-12-20T05:52:23;19.30;;;7.30;;
13404;SDS011;6773;51.192;7.024;2023-12-20T05:54:49;20.40;;;6.77;;
13404;SDS011;6773;51.192;7.024;2023-12-20T05:57:16;18.10;;;7.03;;
13404;SDS011;6773;51.192;7.024;2023-12-20T05:59:41;19.20;;;6.23;;
13404;SDS011;6773;51.192;7.024;2023-12-20T06:02:07;19.47;;;6.80;;
13404;SDS011;6773;51.192;7.024;2023-12-20T06:04:33;20.13;;;6.57;;
13404;SDS011;6773;51.192;7.024;2023-12-20T06:06:59;18.27;;;7.90;;
13404;SDS011;6773;51.192;7.024;2023-12-20T06:09:29;21.07;;;7.40;;
13404;SDS011;6773;51.192;7.024;2023-12-20T06:11:54;19.83;;;5.80;;
13404;SDS011;6773;51.192;7.024;2023-12-20T06:14:20;9.97;;;5.17;;
13404;SDS011;6773;51.192;7.024;2023-12-20T06:16:46;11.93;;;6.67;;
13404;SDS011;6773;51.192;7.024;2023-12-20T06:19:12;18.83;;;6.70;;
13404;SDS011;6773;51.192;7.024;2023-12-20T06:21:38;18.97;;;6.87;;
13404;SDS011;6773;51.192;7.024;2023-12-20T06:24:04;26.67;;;7.93;;
13404;SDS011;6773;51.192;7.024;2023-12-20T06:26:30;15.57;;;6.63;;
13404;SDS011;6773;51.192;7.024;2023-12-20T06:28:56;15.17;;;6.73;;
13404;SDS011;6773;51.192;7.024;2023-12-20T06:31:22;16.87;;;6.63;;
13404;SDS011;6773;51.192;7.024;2023-12-20T06:33:48;16.97;;;4.83;;
13404;SDS011;6773;51.192;7.024;2023-12-20T06:36:22;21.13;;;6.33;;
13404;SDS011;6773;51.192;7.024;2023-12-20T06:38:48;19.23;;;6.77;;
13404;SDS011;6773;51.192;7.024;2023-12-20T06:41:14;17.57;;;6.47;;
13404;SDS011;6773;51.192;7.024;2023-12-20T06:43:42;17.43;;;6.50;;
13404;SDS011;6773;51.192;7.024;2023-12-20T06:46:08;15.10;;;6.07;;
13404;SDS011;6773;51.192;7.024;2023-12-20T06:48:34;13.73;;;6.77;;
13404;SDS011;6773;51.192;7.024;2023-12-20T06:51:00;17.23;;;5.60;;
13404;SDS011;6773;51.192;7.024;2023-12-20T06:53:30;17.20;;;6.63;;
13404;SDS011;6773;51.192;7.024;2023-12-20T06:55:55;17.47;;;8.03;;
13404;SDS011;6773;51.192;7.024;2023-12-20T06:58:21;19.77;;;7.03;;
13404;SDS011;6773;51.192;7.024;2023-12-20T07:00:48;19.83;;;6.47;;
13404;SDS011;6773;51.192;7.024;2023-12-20T07:03:14;20.10;;;8.27;;
13404;SDS011;6773;51.192;7.024;2023-12-20T07:05:40;20.30;;;7.13;;
13404;SDS011;6773;51.192;7.024;2023-12-20T07:08:06;19.43;;;6.60;;
13404;SDS011;6773;51.192;7.024;2023-12-20T07:10:32;13.33;;;5.27;;
13404;SDS011;6773;51.192;7.024;2023-12-20T07:12:58;22.07;;;7.83;;
13404;SDS011;6773;51.192;7.024;2023-12-20T07:15:24;15.67;;;7.50;;
13404;SDS011;6773;51.192;7.024;2023-12-20T07:17:51;21.90;;;6.87;;
13404;SDS011;6773;51.192;7.024;2023-12-20T07:20:17;16.27;;;6.80;;
13404;SDS011;6773;51.192;7.024;2023-12-20T07:22:43;21.60;;;7.53;;
13404;SDS011;6773;51.192;7.024;2023-12-20T07:25:09;22.97;;;7.13;;
13404;SDS011;6773;51.192;7.024;2023-12-20T07:27:35;22.00;;;7.03;;
13404;SDS011;6773;51.192;7.024;2023-12-20T07:30:01;15.87;;;6.53;;
13404;SDS011;6773;51.192;7.024;2023-12-20T07:32:27;15.77;;;6.03;;
13404;SDS011;6773;51.192;7.024;2023-12-20T07:34:53;14.67;;;5.97;;
13404;SDS011;6773;51.192;7.024;2023-12-20T07:37:19;16.27;;;5.77;;
13404;SDS011;6773;51.192;7.024;2023-12-20T07:39:46;14.17;;;6.37;;
13404;SDS011;6773;51.192;7.024;2023-12-20T07:42:12;18.30;;;6.60;;
13404;SDS011;6773;51.192;7.024;2023-12-20T07:44:38;16.73;;;6.50;;
13404;SDS011;6773;51.192;7.024;2023-12-20T07:47:04;18.73;;;6.50;;
13404;SDS011;6773;51.192;7.024;2023-12-20T07:49:31;29.97;;;6.57;;
13404;SDS011;6773;51.192;7.024;2023-12-20T07:51:57;20.03;;;5.73;;
13404;SDS011;6773;51.192;7.024;2023-12-20T07:54:23;17.50;;;5.87;;
13404;SDS011;6773;51.192;7.024;2023-12-20T07:56:48;19.60;;;6.43;;
13404;SDS011;6773;51.192;7.024;2023-12-20T07:59:15;17.03;;;7.20;;
13404;SDS011;6773;51.192;7.024;2023-12-20T08:01:41;14.20;;;6.80;;
13404;SDS011;6773;51.192;7.024;2023-12-20T08:04:07;13.60;;;5.97;;
13404;SDS011;6773;51.192;7.024;2023-12-20T08:06:33;19.87;;;6.70;;
13404;SDS011;6773;51.192;7.024;2023-12-20T08:08:59;19.50;;;6.67;;
13404;SDS011;6773;51.192;7.024;2023-12-20T08:11:25;17.67;;;6.77;;
13404;SDS011;6773;51.192;7.024;2023-12-20T08:13:51;18.47;;;7.53;;
13404;SDS011;6773;51.192;7.024;2023-12-20T08:16:18;19.07;;;6.63;;
13404;SDS011;6773;51.192;7.024;2023-12-20T08:18:44;18.83;;;7.47;;
13404;SDS011;6773;51.192;7.024;2023-12-20T08:21:10;11.70;;;5.90;;
13404;SDS011;6773;51.192;7.024;2023-12-20T08:23:36;23.53;;;7.03;;
13404;SDS011;6773;51.192;7.024;2023-12-20T08:26:08;22.93;;;7.70;;
13404;SDS011;6773;51.192;7.024;2023-12-20T08:28:34;23.83;;;8.07;;
13404;SDS011;6773;51.192;7.024;2023-12-20T08:31:00;17.17;;;6.60;;
13404;SDS011;6773;51.192;7.024;2023-12-20T08:33:26;15.43;;;7.00;;
13404;SDS011;6773;51.192;7.024;2023-12-20T08:35:52;13.27;;;6.20;;
13404;SDS011;6773;51.192;7.024;2023-12-20T08:38:18;16.93;;;6.20;;
13404;SDS011;6773;51.192;7.024;2023-12-20T08:40:44;14.50;;;6.23;;
13404;SDS011;6773;51.192;7.024;2023-12-20T08:43:10;13.90;;;6.10;;
13404;SDS011;6773;51.192;7.024;2023-12-20T08:45:36;17.10;;;7.40;;
13404;SDS011;6773;51.192;7.024;2023-12-20T08:48:02;15.70;;;6.30;;
13404;SDS011;6773;51.192;7.024;2023-12-20T08:50:28;13.03;;;6.37;;
13404;SDS011;6773;51.192;7.024;2023-12-20T08:52:54;15.07;;;5.77;;
13404;SDS011;6773;51.192;7.024;2023-12-20T08:55:20;18.33;;;6.60;;
13404;SDS011;6773;51.192;7.024;2023-12-20T08:57:46;17.93;;;6.43;;
13404;SDS011;6773;51.192;7.024;2023-12-20T09:00:12;13.80;;;5.83;;
13404;SDS011;6773;51.192;7.024;2023-12-20T09:02:38;10.17;;;6.07;;
13404;SDS011;6773;51.192;7.024;2023-12-20T09:05:04;17.83;;;6.50;;
13404;SDS011;6773;51.192;7.024;2023-12-20T09:07:31;12.93;;;5.70;;
13404;SDS011;6773;51.192;7.024;2023-12-20T09:09:57;16.20;;;6.00;;
13404;SDS011;6773;51.192;7.024;2023-12-20T09:12:23;12.17;;;5.70;;
13404;SDS011;6773;51.192;7.024;2023-12-20T09:14:50;25.53;;;7.03;;
13404;SDS011;6773;51.192;7.024;2023-12-20T09:17:16;12.87;;;4.70;;
13404;SDS011;6773;51.192;7.024;2023-12-20T09:19:43;15.70;;;5.83;;
13404;SDS011;6773;51.192;7.024;2023-12-20T09:22:09;18.20;;;5.77;;
13404;SDS011;6773;51.192;7.024;2023-12-20T09:24:35;18.00;;;5.60;;
13404;SDS011;6773;51.192;7.024;2023-12-20T09:27:01;15.87;;;5.17;;
13404;SDS011;6773;51.192;7.024;2023-12-20T09:29:27;10.30;;;3.70;;
13404;SDS011;6773;51.192;7.024;2023-12-20T09:31:53;17.47;;;5.47;;
13404;SDS011;6773;51.192;7.024;2023-12-20T09:34:19;7.30;;;4.97;;
13404;SDS011;6773;51.192;7.024;2023-12-20T09:36:46;15.40;;;5.07;;
13404;SDS011;6773;51.192;7.024;2023-12-20T09:39:17;18.60;;;6.60;;
13404;SDS011;6773;51.192;7.024;2023-12-20T09:41:44;16.07;;;4.83;;
13404;SDS011;6773;51.192;7.024;2023-12-20T09:44:15;12.23;;;6.00;;
13404;SDS011;6773;51.192;7.024;2023-12-20T09:46:45;8.07;;;3.93;;
13404;SDS011;6773;51.192;7.024;2023-12-20T09:49:11;14.57;;;5.63;;
13404;SDS011;6773;51.192;7.024;2023-12-20T09:51:38;16.13;;;4.80;;
13404;SDS011;6773;51.192;7.024;2023-12-20T09:54:05;12.07;;;4.87;;
13404;SDS011;6773;51.192;7.024;2023-12-20T09:56:31;12.13;;;4.50;;
13404;SDS011;6773;51.192;7.024;2023-12-20T09:58:57;16.43;;;4.70;;
13404;SDS011;6773;51.192;7.024;2023-12-20T10:01:23;6.73;;;4.23;;
13404;SDS011;6773;51.192;7.024;2023-12-20T10:03:51;7.20;;;3.67;;
13404;SDS011;6773;51.192;7.024;2023-12-20T10:06:17;15.70;;;5.03;;
13404;SDS011;6773;51.192;7.024;2023-12-20T10:08:43;15.10;;;4.90;;
13404;SDS011;6773;51.192;7.024;2023-12-20T10:11:09;11.23;;;3.80;;
13404;SDS011;6773;51.192;7.024;2023-12-20T10:13:38;9.47;;;3.40;;
13404;SDS011;6773;51.192;7.024;2023-12-20T10:16:05;15.57;;;4.10;;
13404;SDS011;6773;51.192;7.024;2023-12-20T10:18:32;10.97;;;4.37;;
13404;SDS011;6773;51.192;7.024;2023-12-20T10:20:58;14.67;;;4.30;;
13404;SDS011;6773;51.192;7.024;2023-12-20T10:23:24;16.33;;;4.70;;
13404;SDS011;6773;51.192;7.024;2023-12-20T10:25:56;9.03;;;3.97;;
13404;SDS011;6773;51.192;7.024;2023-12-20T10:28:25;10.67;;;4.03;;
13404;SDS011;6773;51.192;7.024;2023-12-20T10:30:54;12.73;;;4.27;;
13404;SDS011;6773;51.192;7.024;2023-12-20T10:33:25;7.47;;;3.93;;
13404;SDS011;6773;51.192;7.024;2023-12-20T10:35:52;16.97;;;5.03;;
13404;SDS011;6773;51.192;7.024;2023-12-20T10:38:18;7.90;;;3.80;;
13404;SDS011;6773;51.192;7.024;2023-12-20T10:40:45;14.50;;;4.13;;
13404;SDS011;6773;51.192;7.024;2023-12-20T10:43:11;12.47;;;4.37;;
13404;SDS011;6773;51.192;7.024;2023-12-20T10:45:37;10.27;;;3.43;;
13404;SDS011;6773;51.192;7.024;2023-12-20T10:48:03;12.67;;;4.20;;
13404;SDS011;6773;51.192;7.024;2023-12-20T10:50:30;8.00;;;4.23;;
13404;SDS011;6773;51.192;7.024;2023-12-20T10:52:56;10.17;;;4.63;;
13404;SDS011;6773;51.192;7.024;2023-12-20T10:55:23;11.57;;;4.07;;
13404;SDS011;6773;51.192;7.024;2023-12-20T10:57:50;12.43;;;4.80;;
13404;SDS011;6773;51.192;7.024;2023-12-20T11:00:17;8.70;;;3.70;;
13404;SDS011;6773;51.192;7.024;2023-12-20T11:02:43;14.27;;;4.40;;
13404;SDS011;6773;51.192;7.024;2023-12-20T11:07:47;8.33;;;4.07;;
13404;SDS011;6773;51.192;7.024;2023-12-20T11:10:24;11.13;;;3.70;;
13404;SDS011;6773;51.192;7.024;2023-12-20T11:12:54;8.80;;;4.17;;
13404;SDS011;6773;51.192;7.024;2023-12-20T11:15:23;9.03;;;3.90;;
13404;SDS011;6773;51.192;7.024;2023-12-20T11:17:55;13.20;;;4.23;;
13404;SDS011;6773;51.192;7.024;2023-12-20T11:20:35;9.93;;;3.80;;
13404;SDS011;6773;51.192;7.024;2023-12-20T11:23:02;11.10;;;4.27;;
13404;SDS011;6773;51.192;7.024;2023-12-20T11:25:28;9.40;;;3.30;;
13404;SDS011;6773;51.192;7.024;2023-12-20T11:28:06;13.57;;;5.10;;
13404;SDS011;6773;51.192;7.024;2023-12-20T11:33:31;9.67;;;4.13;;
13404;SDS011;6773;51.192;7.024;2023-12-20T11:35:57;12.93;;;4.37;;
13404;SDS011;6773;51.192;7.024;2023-12-20T11:38:28;11.73;;;4.83;;
13404;SDS011;6773;51.192;7.024;2023-12-20T11:41:05;11.33;;;4.50;;
13404;SDS011;6773;51.192;7.024;2023-12-20T11:43:31;9.33;;;3.70;;
13404;SDS011;6773;51.192;7.024;2023-12-20T11:46:06;17.90;;;4.93;;
13404;SDS011;6773;51.192;7.024;2023-12-20T11:48:34;9.40;;;4.10;;
13404;SDS011;6773;51.192;7.024;2023-12-20T11:51:00;11.70;;;4.97;;
13404;SDS011;6773;51.192;7.024;2023-12-20T11:53:28;9.73;;;4.63;;
13404;SDS011;6773;51.192;7.024;2023-12-20T11:55:56;11.97;;;4.77;;
13404;SDS011;6773;51.192;7.024;2023-12-20T11:58:22;9.87;;;4.70;;
13404;SDS011;6773;51.192;7.024;2023-12-20T12:00:49;14.97;;;4.40;;
13404;SDS011;6773;51.192;7.024;2023-12-20T12:03:16;16.73;;;4.87;;
13404;SDS011;6773;51.192;7.024;2023-12-20T12:05:43;11.73;;;4.13;;
13404;SDS011;6773;51.192;7.024;2023-12-20T12:08:09;10.47;;;4.00;;
13404;SDS011;6773;51.192;7.024;2023-12-20T12:10:34;10.27;;;4.10;;
13404;SDS011;6773;51.192;7.024;2023-12-20T12:13:01;13.50;;;4.57;;
13404;SDS011;6773;51.192;7.024;2023-12-20T12:15:27;12.40;;;4.60;;
13404;SDS011;6773;51.192;7.024;2023-12-20T12:17:53;11.63;;;4.27;;
13404;SDS011;6773;51.192;7.024;2023-12-20T12:20:21;9.23;;;4.47;;
13404;SDS011;6773;51.192;7.024;2023-12-20T12:22:57;6.93;;;4.37;;
13404;SDS011;6773;51.192;7.024;2023-12-20T12:25:23;14.03;;;5.10;;
13404;SDS011;6773;51.192;7.024;2023-12-20T12:27:50;6.60;;;4.60;;
13404;SDS011;6773;51.192;7.024;2023-12-20T12:30:16;12.67;;;4.40;;
13404;SDS011;6773;51.192;7.024;2023-12-20T12:32:43;8.73;;;4.27;;
13404;SDS011;6773;51.192;7.024;2023-12-20T12:35:09;8.93;;;4.27;;
13404;SDS011;6773;51.192;7.024;2023-12-20T12:37:39;10.33;;;4.23;;
13404;SDS011;6773;51.192;7.024;2023-12-20T12:40:15;10.07;;;4.50;;
13404;SDS011;6773;51.192;7.024;2023-12-20T12:42:43;12.13;;;4.30;;
13404;SDS011;6773;51.192;7.024;2023-12-20T12:45:09;7.73;;;4.10;;
13404;SDS011;6773;51.192;7.024;2023-12-20T12:47:36;12.97;;;5.27;;
13404;SDS011;6773;51.192;7.024;2023-12-20T12:50:02;9.13;;;4.63;;
13404;SDS011;6773;51.192;7.024;2023-12-20T12:52:28;9.93;;;4.77;;
13404;SDS011;6773;51.192;7.024;2023-12-20T12:54:54;13.63;;;4.90;;
13404;SDS011;6773;51.192;7.024;2023-12-20T12:57:20;11.23;;;4.73;;
13404;SDS011;6773;51.192;7.024;2023-12-20T12:59:46;8.53;;;4.70;;
13404;SDS011;6773;51.192;7.024;2023-12-20T13:02:12;11.43;;;4.43;;
13404;SDS011;6773;51.192;7.024;2023-12-20T13:04:39;8.13;;;4.67;;
13404;SDS011;6773;51.192;7.024;2023-12-20T13:07:06;15.00;;;5.57;;
13404;SDS011;6773;51.192;7.024;2023-12-20T13:09:32;17.13;;;6.10;;
13404;SDS011;6773;51.192;7.024;2023-12-20T13:11:58;14.07;;;5.30;;
13404;SDS011;6773;51.192;7.024;2023-12-20T13:14:24;16.53;;;6.17;;
13404;SDS011;6773;51.192;7.024;2023-12-20T13:16:50;12.73;;;6.00;;
13404;SDS011;6773;51.192;7.024;2023-12-20T13:19:16;13.80;;;5.90;;
13404;SDS011;6773;51.192;7.024;2023-12-20T13:21:42;10.90;;;5.80;;
13404;SDS011;6773;51.192;7.024;2023-12-20T13:24:08;12.80;;;6.77;;
13404;SDS011;6773;51.192;7.024;2023-12-20T13:26:34;13.70;;;6.23;;
13404;SDS011;6773;51.192;7.024;2023-12-20T13:29:00;16.53;;;7.10;;
13404;SDS011;6773;51.192;7.024;2023-12-20T13:31:26;12.83;;;6.17;;
13404;SDS011;6773;51.192;7.024;2023-12-20T13:33:52;12.60;;;6.17;;
13404;SDS011;6773;51.192;7.024;2023-12-20T13:36:18;11.83;;;6.57;;
13404;SDS011;6773;51.192;7.024;2023-12-20T13:38:44;19.80;;;7.37;;
13404;SDS011;6773;51.192;7.024;2023-12-20T13:41:10;11.40;;;6.80;;
13404;SDS011;6773;51.192;7.024;2023-12-20T13:43:36;19.70;;;7.50;;
13404;SDS011;6773;51.192;7.024;2023-12-20T13:46:03;11.00;;;6.57;;
13404;SDS011;6773;51.192;7.024;2023-12-20T13:48:29;22.10;;;8.10;;
13404;SDS011;6773;51.192;7.024;2023-12-20T13:50:55;11.33;;;7.67;;
13404;SDS011;6773;51.192;7.024;2023-12-20T13:53:20;15.57;;;7.97;;
13404;SDS011;6773;51.192;7.024;2023-12-20T13:55:46;17.77;;;7.57;;
13404;SDS011;6773;51.192;7.024;2023-12-20T13:58:12;13.17;;;7.23;;
13404;SDS011;6773;51.192;7.024;2023-12-20T14:00:38;14.67;;;7.87;;
13404;SDS011;6773;51.192;7.024;2023-12-20T14:03:04;17.47;;;6.83;;
13404;SDS011;6773;51.192;7.024;2023-12-20T14:05:30;14.73;;;7.97;;
13404;SDS011;6773;51.192;7.024;2023-12-20T14:07:56;19.70;;;7.83;;
13404;SDS011;6773;51.192;7.024;2023-12-20T14:10:23;13.63;;;7.73;;
13404;SDS011;6773;51.192;7.024;2023-12-20T14:12:51;16.07;;;7.47;;
13404;SDS011;6773;51.192;7.024;2023-12-20T14:15:20;14.43;;;9.63;;
13404;SDS011;6773;51.192;7.024;2023-12-20T14:17:46;26.47;;;8.47;;
13404;SDS011;6773;51.192;7.024;2023-12-20T14:20:12;16.13;;;7.60;;
13404;SDS011;6773;51.192;7.024;2023-12-20T14:22:41;14.47;;;7.10;;
13404;SDS011;6773;51.192;7.024;2023-12-20T14:25:11;17.00;;;7.53;;
13404;SDS011;6773;51.192;7.024;2023-12-20T14:27:38;15.20;;;7.67;;
13404;SDS011;6773;51.192;7.024;2023-12-20T14:30:05;15.40;;;7.13;;
13404;SDS011;6773;51.192;7.024;2023-12-20T14:32:31;16.70;;;8.10;;
13404;SDS011;6773;51.192;7.024;2023-12-20T14:34:59;19.87;;;7.60;;
13404;SDS011;6773;51.192;7.024;2023-12-20T14:37:25;18.23;;;7.57;;
13404;SDS011;6773;51.192;7.024;2023-12-20T14:39:51;11.20;;;6.93;;
13404;SDS011;6773;51.192;7.024;2023-12-20T14:42:17;13.10;;;7.73;;
13404;SDS011;6773;51.192;7.024;2023-12-20T14:44:43;16.53;;;8.67;;
13404;SDS011;6773;51.192;7.024;2023-12-20T14:47:09;14.97;;;8.10;;
13404;SDS011;6773;51.192;7.024;2023-12-20T14:49:35;12.13;;;6.83;;